createdAt,value
2022-12-14T00:01:36.613Z,-4.90
2022-12-14T00:04:03.743Z,-4.94
2022-12-14T00:06:32.083Z,-4.99
2022-12-14T00:09:00.479Z,-5.05
2022-12-14T00:11:27.390Z,-5.11
2022-12-14T00:13:56.255Z,-5.18
2022-12-14T00:16:23.931Z,-5.21
2022-12-14T00:18:52.588Z,-5.17
2022-12-14T00:21:19.737Z,-5.07
2022-12-14T00:23:47.124Z,-4.95
2022-12-14T00:26:18.382Z,-4.91
2022-12-14T00:28:45.653Z,-4.91
2022-12-14T00:31:15.658Z,-4.93
2022-12-14T00:33:42.614Z,-4.96
2022-12-14T00:36:10.108Z,-5.01
2022-12-14T00:38:40.292Z,-5.07
2022-12-14T00:41:07.195Z,-5.14
2022-12-14T00:43:34.029Z,-5.19
2022-12-14T00:46:00.954Z,-5.26
2022-12-14T00:48:28.052Z,-5.30
2022-12-14T00:50:55.487Z,-5.34
2022-12-14T00:53:22.938Z,-5.31
2022-12-14T00:55:50.041Z,-5.23
2022-12-14T00:58:19.482Z,-5.15
2022-12-14T01:00:46.653Z,-5.14
2022-12-14T01:03:13.644Z,-5.17
2022-12-14T01:05:41.161Z,-5.22
2022-12-14T01:08:08.163Z,-5.27
2022-12-14T01:10:38.071Z,-5.33
2022-12-14T01:13:04.911Z,-5.40
2022-12-14T01:15:31.747Z,-5.45
2022-12-14T01:17:58.530Z,-5.51
2022-12-14T01:20:25.393Z,-5.60
2022-12-14T01:22:56.333Z,-5.68
2022-12-14T01:25:23.243Z,-5.74
2022-12-14T01:27:50.210Z,-5.75
2022-12-14T01:30:19.382Z,-5.70
2022-12-14T01:32:47.088Z,-5.65
2022-12-14T01:35:14.056Z,-5.61
2022-12-14T01:37:40.908Z,-5.60
2022-12-14T01:40:08.325Z,-5.63
2022-12-14T01:42:36.184Z,-5.67
2022-12-14T01:45:03.064Z,-5.73
2022-12-14T01:47:39.645Z,-5.80
2022-12-14T01:50:30.503Z,-5.88
2022-12-14T01:53:00.125Z,-5.92
2022-12-14T01:55:49.547Z,-5.95
2022-12-14T01:58:23.172Z,-6.00
2022-12-14T02:00:52.670Z,-6.01
2022-12-14T02:03:25.551Z,-5.94
2022-12-14T02:05:59.384Z,-5.86
2022-12-14T02:08:26.303Z,-5.81
2022-12-14T02:10:53.538Z,-5.83
2022-12-14T02:13:32.994Z,-5.85
2022-12-14T02:16:00.001Z,-5.88
2022-12-14T02:18:28.638Z,-5.92
2022-12-14T02:21:35.291Z,-5.95
2022-12-14T02:24:08.902Z,-5.98
2022-12-14T02:26:54.083Z,-6.03
2022-12-14T02:29:33.048Z,-6.08
2022-12-14T02:32:18.920Z,-6.13
2022-12-14T02:35:37.992Z,-6.13
2022-12-14T02:38:11.507Z,-6.00
2022-12-14T02:41:06.390Z,-5.88
2022-12-14T02:43:58.810Z,-5.83
2022-12-14T02:46:29.345Z,-5.83
2022-12-14T02:48:56.187Z,-5.86
2022-12-14T02:51:32.607Z,-5.88
2022-12-14T02:54:21.015Z,-5.89
2022-12-14T02:56:51.536Z,-5.91
2022-12-14T02:59:18.353Z,-5.94
2022-12-14T03:01:47.212Z,-5.98
2022-12-14T03:04:14.740Z,-6.02
2022-12-14T03:07:00.160Z,-6.07
2022-12-14T03:09:27.487Z,-6.09
2022-12-14T03:12:07.589Z,-6.01
2022-12-14T03:14:36.891Z,-5.88
2022-12-14T03:17:10.665Z,-5.79
2022-12-14T03:19:40.903Z,-5.77
2022-12-14T03:22:09.238Z,-5.79
2022-12-14T03:24:42.101Z,-5.83
2022-12-14T03:27:13.322Z,-5.88
2022-12-14T03:29:43.307Z,-5.94
2022-12-14T03:32:12.262Z,-5.99
2022-12-14T03:34:47.317Z,-6.04
2022-12-14T03:37:17.724Z,-6.08
2022-12-14T03:39:44.547Z,-6.13
2022-12-14T03:42:33.320Z,-6.16
2022-12-14T03:45:05.051Z,-6.09
2022-12-14T03:48:02.299Z,-5.97
2022-12-14T03:50:37.815Z,-5.88
2022-12-14T03:53:32.531Z,-5.86
2022-12-14T03:56:37.874Z,-5.89
2022-12-14T03:59:10.052Z,-5.96
2022-12-14T04:01:55.232Z,-6.01
2022-12-14T04:04:27.780Z,-6.11
2022-12-14T04:07:23.507Z,-6.17
2022-12-14T04:10:00.167Z,-6.24
2022-12-14T04:12:51.546Z,-6.32
2022-12-14T04:15:50.016Z,-6.39
2022-12-14T04:18:44.127Z,-6.46
2022-12-14T04:21:13.738Z,-6.47
2022-12-14T04:24:01.716Z,-6.38
2022-12-14T04:26:31.284Z,-6.28
2022-12-14T04:29:18.792Z,-6.19
2022-12-14T04:31:49.321Z,-6.08
2022-12-14T04:34:18.600Z,-6.02
2022-12-14T04:37:05.133Z,-6.03
2022-12-14T04:39:41.456Z,-6.06
2022-12-14T04:42:10.443Z,-6.08
2022-12-14T04:44:39.126Z,-6.11
2022-12-14T04:47:07.886Z,-6.14
2022-12-14T04:49:51.106Z,-6.17
2022-12-14T04:52:19.239Z,-6.21
2022-12-14T04:54:56.891Z,-6.26
2022-12-14T04:57:23.729Z,-6.30
2022-12-14T04:59:50.544Z,-6.34
2022-12-14T05:02:36.361Z,-6.36
2022-12-14T05:05:08.796Z,-6.38
2022-12-14T05:07:45.103Z,-6.36
2022-12-14T05:10:27.865Z,-6.25
2022-12-14T05:13:09.015Z,-6.12
2022-12-14T05:15:39.686Z,-5.98
2022-12-14T05:18:09.756Z,-5.86
2022-12-14T05:20:36.733Z,-5.80
2022-12-14T05:23:03.552Z,-5.76
2022-12-14T05:25:30.420Z,-5.77
2022-12-14T05:27:57.293Z,-5.78
2022-12-14T05:32:11.031Z,-5.80
2022-12-14T05:34:38.033Z,-5.85
2022-12-14T05:37:04.897Z,-5.87
2022-12-14T05:39:31.770Z,-5.90
2022-12-14T05:41:58.649Z,-5.92
2022-12-14T05:44:25.526Z,-5.96
2022-12-14T05:46:52.428Z,-6.03
2022-12-14T05:49:19.334Z,-6.08
2022-12-14T05:51:46.246Z,-6.14
2022-12-14T05:54:13.090Z,-6.12
2022-12-14T05:56:39.947Z,-6.02
2022-12-14T05:59:09.181Z,-5.92
2022-12-14T06:01:36.105Z,-5.88
2022-12-14T06:04:05.529Z,-5.87
2022-12-14T06:06:33.139Z,-5.89
2022-12-14T06:08:59.996Z,-5.92
2022-12-14T06:11:26.938Z,-5.94
2022-12-14T06:13:53.810Z,-5.95
2022-12-14T06:16:24.843Z,-5.97
2022-12-14T06:18:53.642Z,-5.98
2022-12-14T06:21:22.028Z,-5.97
2022-12-14T06:23:53.796Z,-5.96
2022-12-14T06:26:20.841Z,-5.94
2022-12-14T06:28:49.984Z,-5.92
2022-12-14T06:31:18.473Z,-5.83
2022-12-14T06:33:45.499Z,-5.70
2022-12-14T06:36:19.789Z,-5.61
2022-12-14T06:38:50.073Z,-5.54
2022-12-14T06:41:17.297Z,-5.47
2022-12-14T06:43:44.216Z,-5.44
2022-12-14T06:46:15.571Z,-5.39
2022-12-14T06:48:43.048Z,-5.34
2022-12-14T06:51:09.944Z,-5.30
2022-12-14T06:53:39.111Z,-5.26
2022-12-14T06:56:10.515Z,-5.22
2022-12-14T06:58:37.704Z,-5.18
2022-12-14T07:01:05.862Z,-5.16
2022-12-14T07:03:32.975Z,-5.04
2022-12-14T07:06:00.405Z,-4.87
2022-12-14T07:08:27.752Z,-4.71
2022-12-14T07:11:00.511Z,-4.62
2022-12-14T07:13:29.783Z,-4.56
2022-12-14T07:15:57.355Z,-4.53
2022-12-14T07:18:24.288Z,-4.51
2022-12-14T07:21:05.894Z,-4.49
2022-12-14T07:23:34.303Z,-4.46
2022-12-14T07:26:06.668Z,-4.42
2022-12-14T07:28:34.465Z,-4.38
2022-12-14T07:31:01.683Z,-4.34
2022-12-14T07:33:31.215Z,-4.32
2022-12-14T07:36:10.343Z,-4.22
2022-12-14T07:38:38.251Z,-4.05
2022-12-14T07:41:08.394Z,-3.88
2022-12-14T07:43:35.262Z,-3.78
2022-12-14T07:46:03.342Z,-3.72
2022-12-14T07:48:35.333Z,-3.67
2022-12-14T07:51:11.238Z,-3.64
2022-12-14T07:53:38.291Z,-3.61
2022-12-14T07:56:12.653Z,-3.60
2022-12-14T07:58:39.541Z,-3.60
2022-12-14T08:01:22.590Z,-3.59
2022-12-14T08:03:51.031Z,-3.60
2022-12-14T08:06:18.509Z,-3.61
2022-12-14T08:08:45.503Z,-3.61
2022-12-14T08:11:12.792Z,-3.60
2022-12-14T08:13:43.409Z,-3.54
2022-12-14T08:16:15.354Z,-3.38
2022-12-14T08:18:44.709Z,-3.22
2022-12-14T08:21:12.406Z,-3.12
2022-12-14T08:23:39.347Z,-3.08
2022-12-14T08:26:08.521Z,-3.05
2022-12-14T08:28:37.773Z,-3.04
2022-12-14T08:31:06.229Z,-3.05
2022-12-14T08:33:35.971Z,-3.06
2022-12-14T08:36:13.162Z,-3.09
2022-12-14T08:38:40.678Z,-3.10
2022-12-14T08:41:08.969Z,-3.11
2022-12-14T08:43:36.049Z,-3.09
2022-12-14T08:46:03.008Z,-3.08
2022-12-14T08:48:29.834Z,-3.10
2022-12-14T08:51:06.577Z,-3.13
2022-12-14T08:53:33.937Z,-3.16
2022-12-14T08:56:05.355Z,-3.16
2022-12-14T08:58:32.201Z,-3.07
2022-12-14T09:01:06.412Z,-2.90
2022-12-14T09:03:35.528Z,-2.77
2022-12-14T09:06:06.893Z,-2.72
2022-12-14T09:08:34.214Z,-2.68
2022-12-14T09:11:01.539Z,-2.65
2022-12-14T09:13:28.856Z,-2.62
2022-12-14T09:16:06.707Z,-2.59
2022-12-14T09:18:34.572Z,-2.55
2022-12-14T09:21:01.491Z,-2.54
2022-12-14T09:23:29.130Z,-2.52
2022-12-14T09:26:02.884Z,-2.52
2022-12-14T09:28:32.838Z,-2.55
2022-12-14T09:31:04.861Z,-2.60
2022-12-14T09:33:37.381Z,-2.58
2022-12-14T09:36:05.774Z,-2.46
2022-12-14T09:38:35.827Z,-2.24
2022-12-14T09:41:08.009Z,-2.05
2022-12-14T09:43:44.084Z,-1.90
2022-12-14T09:46:23.440Z,-1.78
2022-12-14T09:49:26.170Z,-1.68
2022-12-14T09:55:31.912Z,-1.48
2022-12-14T09:58:15.796Z,-1.41
2022-12-14T10:00:51.618Z,-1.35
2022-12-14T10:03:41.346Z,-1.31
2022-12-14T10:06:59.716Z,-1.28
2022-12-14T10:09:57.463Z,-1.26
2022-12-14T10:12:34.536Z,-1.25
2022-12-14T10:15:22.848Z,-1.26
2022-12-14T10:18:17.547Z,-1.25
2022-12-14T10:21:01.883Z,-1.26
2022-12-14T10:23:31.449Z,-1.28
2022-12-14T10:26:02.999Z,-1.28
2022-12-14T10:28:56.389Z,-1.24
2022-12-14T10:31:40.996Z,-1.19
2022-12-14T10:34:23.122Z,-1.16
2022-12-14T10:37:25.831Z,-1.15
2022-12-14T10:40:17.757Z,-1.13
2022-12-14T10:43:17.945Z,-1.13
2022-12-14T10:46:26.459Z,-1.12
2022-12-14T10:49:04.882Z,-1.12
2022-12-14T10:51:38.559Z,-1.12
2022-12-14T10:54:34.194Z,-1.15
2022-12-14T10:57:01.329Z,-1.24
2022-12-14T10:59:39.549Z,-1.27
2022-12-14T11:02:27.682Z,-1.31
2022-12-14T11:05:14.906Z,-1.35
2022-12-14T11:07:45.825Z,-1.34
2022-12-14T11:10:32.538Z,-1.30
2022-12-14T11:13:05.880Z,-1.30
2022-12-14T11:15:43.987Z,-1.35
2022-12-14T11:18:24.345Z,-1.37
2022-12-14T11:20:58.070Z,-1.40
2022-12-14T11:23:39.352Z,-1.45
2022-12-14T11:26:12.619Z,-1.46
2022-12-14T11:28:41.563Z,-1.42
2022-12-14T11:31:11.393Z,-1.36
2022-12-14T11:33:45.408Z,-1.31
2022-12-14T11:36:25.171Z,-1.33
2022-12-14T11:39:24.991Z,-1.34
2022-12-14T11:41:58.370Z,-1.29
2022-12-14T11:44:26.388Z,-1.24
2022-12-14T11:46:55.291Z,-1.19
2022-12-14T11:49:27.960Z,-1.11
2022-12-14T11:51:55.600Z,-0.98
2022-12-14T11:54:22.408Z,-0.85
2022-12-14T11:56:56.471Z,-0.84
2022-12-14T11:59:23.339Z,-0.85
2022-12-14T12:01:50.447Z,-0.82
2022-12-14T12:04:17.592Z,-0.74
2022-12-14T12:06:44.534Z,-0.65
2022-12-14T12:09:34.914Z,-0.59
2022-12-14T12:12:15.282Z,-0.48
2022-12-14T12:14:42.436Z,-0.41
2022-12-14T12:17:42.154Z,-0.34
2022-12-14T12:20:16.161Z,-0.29
2022-12-14T12:22:44.572Z,-0.25
2022-12-14T12:25:26.520Z,-0.20
2022-12-14T12:28:10.620Z,-0.21
2022-12-14T12:30:39.761Z,-0.25
2022-12-14T12:33:28.843Z,-0.31
2022-12-14T12:35:56.610Z,-0.40
2022-12-14T12:38:50.481Z,-0.46
2022-12-14T12:41:20.428Z,-0.51
2022-12-14T12:44:05.468Z,-0.58
2022-12-14T12:47:07.228Z,-0.66
2022-12-14T12:49:34.126Z,-0.71
2022-12-14T12:52:06.581Z,-0.71
2022-12-14T12:54:37.921Z,-0.69
2022-12-14T12:57:06.105Z,-0.68
2022-12-14T12:59:35.085Z,-0.71
2022-12-14T13:02:13.113Z,-0.70
2022-12-14T13:04:46.538Z,-0.71
2022-12-14T13:07:30.308Z,-0.73
2022-12-14T13:10:22.671Z,-0.75
2022-12-14T13:12:56.315Z,-0.74
2022-12-14T13:15:32.866Z,-0.68
2022-12-14T13:18:48.770Z,-0.64
2022-12-14T13:21:29.673Z,-0.61
2022-12-14T13:23:59.570Z,-0.60
2022-12-14T13:27:02.949Z,-0.60
2022-12-14T13:30:07.391Z,-0.66
2022-12-14T13:32:56.611Z,-0.75
2022-12-14T13:35:47.980Z,-0.83
2022-12-14T13:38:33.572Z,-0.91
2022-12-14T13:41:19.132Z,-0.99
2022-12-14T13:44:04.551Z,-1.07
2022-12-14T13:46:31.583Z,-1.14
2022-12-14T13:49:00.973Z,-1.19
2022-12-14T13:51:31.908Z,-1.24
2022-12-14T13:53:59.672Z,-1.26
2022-12-14T13:56:33.645Z,-1.25
2022-12-14T13:59:04.660Z,-1.23
2022-12-14T14:01:51.624Z,-1.22
2022-12-14T14:04:25.197Z,-1.23
2022-12-14T14:06:53.474Z,-1.27
2022-12-14T14:09:26.457Z,-1.32
2022-12-14T14:12:25.570Z,-1.34
2022-12-14T14:15:04.759Z,-1.35
2022-12-14T14:17:47.083Z,-1.37
2022-12-14T14:20:58.593Z,-1.39
2022-12-14T14:23:31.388Z,-1.43
2022-12-14T14:26:27.440Z,-1.45
2022-12-14T14:29:32.056Z,-1.46
2022-12-14T14:32:21.661Z,-1.46
2022-12-14T14:34:49.437Z,-1.37
2022-12-14T14:37:20.420Z,-1.26
2022-12-14T14:40:20.692Z,-1.22
2022-12-14T14:43:07.865Z,-1.24
2022-12-14T14:45:38.731Z,-1.27
2022-12-14T14:48:32.573Z,-1.31
2022-12-14T14:51:12.072Z,-1.37
2022-12-14T14:53:39.530Z,-1.41
2022-12-14T14:56:35.373Z,-1.46
2022-12-14T14:59:17.478Z,-1.58
2022-12-14T15:01:50.509Z,-1.65
2022-12-14T15:04:23.686Z,-1.72
2022-12-14T15:06:57.006Z,-1.77
2022-12-14T15:09:31.113Z,-1.82
2022-12-14T15:12:04.518Z,-1.90
2022-12-14T15:14:35.099Z,-1.99
2022-12-14T15:17:22.274Z,-2.02
2022-12-14T15:19:50.206Z,-2.01
2022-12-14T15:22:19.763Z,-2.03
2022-12-14T15:24:48.867Z,-2.09
2022-12-14T15:27:37.447Z,-2.12
2022-12-14T15:30:13.435Z,-2.16
2022-12-14T15:32:45.896Z,-2.21
2022-12-14T15:35:18.751Z,-2.26
2022-12-14T15:37:59.544Z,-2.32
2022-12-14T15:40:27.883Z,-2.36
2022-12-14T15:42:56.274Z,-2.38
2022-12-14T15:45:34.721Z,-2.40
2022-12-14T15:48:23.957Z,-2.40
2022-12-14T15:50:55.272Z,-2.31
2022-12-14T15:53:32.892Z,-2.19
2022-12-14T15:56:06.762Z,-2.15
2022-12-14T15:58:38.970Z,-2.18
2022-12-14T16:01:23.182Z,-2.17
2022-12-14T16:04:01.793Z,-2.12
2022-12-14T16:06:29.133Z,-2.13
2022-12-14T16:09:09.038Z,-2.15
2022-12-14T16:11:45.856Z,-2.18
2022-12-14T16:14:23.843Z,-2.23
2022-12-14T16:16:53.245Z,-2.28
2022-12-14T16:19:27.733Z,-2.31
2022-12-14T16:22:19.151Z,-2.35
2022-12-14T16:25:16.920Z,-2.30
2022-12-14T16:27:50.176Z,-2.19
2022-12-14T16:30:28.953Z,-2.15
2022-12-14T16:33:16.353Z,-2.16
2022-12-14T16:35:43.391Z,-2.18
2022-12-14T16:38:18.475Z,-2.22
2022-12-14T16:40:48.494Z,-2.31
2022-12-14T16:43:28.837Z,-2.38
2022-12-14T16:46:12.859Z,-2.47
2022-12-14T16:48:41.990Z,-2.55
2022-12-14T16:54:30.537Z,-2.57
2022-12-14T16:57:05.821Z,-2.45
2022-12-14T16:59:48.511Z,-2.37
2022-12-14T17:02:31.648Z,-2.32
2022-12-14T17:04:59.912Z,-2.32
2022-12-14T17:07:30.730Z,-2.34
2022-12-14T17:10:00.495Z,-2.41
2022-12-14T17:12:33.254Z,-2.49
2022-12-14T17:15:03.414Z,-2.61
2022-12-14T17:17:34.217Z,-2.73
2022-12-14T17:20:02.732Z,-2.75
2022-12-14T17:22:31.560Z,-2.69
2022-12-14T17:25:02.739Z,-2.67
2022-12-14T17:27:32.417Z,-2.69
2022-12-14T17:29:59.431Z,-2.73
2022-12-14T17:32:29.847Z,-2.78
2022-12-14T17:35:00.352Z,-2.80
2022-12-14T17:37:31.135Z,-2.84
2022-12-14T17:40:08.789Z,-2.84
2022-12-14T17:42:35.851Z,-2.86
2022-12-14T17:45:05.220Z,-2.82
2022-12-14T17:50:21.775Z,-2.62
2022-12-14T17:52:52.339Z,-2.60
2022-12-14T17:55:27.797Z,-2.56
2022-12-14T17:58:01.187Z,-2.56
2022-12-14T18:00:48.608Z,-2.58
2022-12-14T18:03:16.776Z,-2.63
2022-12-14T18:05:48.851Z,-2.71
2022-12-14T18:08:22.653Z,-2.76
2022-12-14T18:10:56.337Z,-2.80
2022-12-14T18:13:23.914Z,-2.85
2022-12-14T18:15:52.138Z,-2.80
2022-12-14T18:18:20.977Z,-2.70
2022-12-14T18:20:53.101Z,-2.65
2022-12-14T18:23:25.823Z,-2.68
